Time;durP1;ratioP1;P1;durP2;ratioP2;P2;SDS_P1;SDS_P2;PMS_P1;PMS_P2;Temp;Humidity;BMP_temperature;BMP_pressure;BME280_temperature;BME280_humidity;BME280_pressure;Samples;Min_cycle;Max_cycle;Signal;HPM_P1;HPM_P2
2023/12/29 00:02:18;;;;;;;14.52;12.82;;;;;;;20.53;48.16;101933.91;5046629;28;20053;-59
2023/12/29 00:04:45;;;;;;;14.07;12.27;;;;;;;20.56;48.07;101942.63;5033599;28;20506;-58
2023/12/29 00:07:12;;;;;;;13.48;12.18;;;;;;;20.59;48.09;101945.09;5032688;28;20046;-58
2023/12/29 00:09:43;;;;;;;13.82;11.98;;;;;;;20.60;47.96;101932.47;5031290;28;20440;-58
2023/12/29 00:12:11;;;;;;;14.00;12.40;;;;;;;20.59;47.97;101928.94;5034712;28;20041;-57
2023/12/29 00:14:41;;;;;;;13.02;11.73;;;;;;;20.57;47.93;101924.63;5033462;28;20041;-58
2023/12/29 00:17:08;;;;;;;13.05;11.55;;;;;;;20.55;48.26;101929.28;5033142;28;20045;-53
2023/12/29 00:19:36;;;;;;;13.40;12.00;;;;;;;20.54;48.75;101930.22;5030976;28;20045;-52
2023/12/29 00:22:03;;;;;;;12.07;10.45;;;;;;;20.53;49.26;101923.16;5045153;28;20057;-53
2023/12/29 00:24:31;;;;;;;13.40;12.05;;;;;;;20.52;48.84;101916.91;5037183;28;20049;-52
2023/12/29 00:26:59;;;;;;;15.05;13.57;;;;;;;20.50;48.13;101913.50;5034915;28;20045;-54
2023/12/29 00:29:31;;;;;;;13.75;12.45;;;;;;;20.49;48.29;101909.06;5032179;28;20059;-54
2023/12/29 00:32:02;;;;;;;13.50;12.20;;;;;;;20.47;48.98;101903.78;5043197;28;20064;-53
2023/12/29 00:34:31;;;;;;;12.32;11.13;;;;;;;20.47;49.46;101911.84;5033752;28;20049;-55
2023/12/29 00:37:00;;;;;;;13.43;12.05;;;;;;;20.46;49.50;101915.50;5028823;28;20049;-49
2023/12/29 00:39:29;;;;;;;12.90;11.60;;;;;;;20.44;49.84;101920.13;5041392;28;20048;-48
2023/12/29 00:41:57;;;;;;;12.23;11.00;;;;;;;20.45;49.55;101932.59;5033430;28;20045;-50
2023/12/29 00:44:24;;;;;;;14.00;12.02;;;;;;;20.46;49.86;101922.72;5033315;28;20045;-58
2023/12/29 00:46:52;;;;;;;13.00;11.70;;;;;;;20.45;50.34;101923.66;5029174;28;20066;-57
2023/12/29 00:49:21;;;;;;;13.30;11.93;;;;;;;20.44;50.26;101919.28;5034875;28;20049;-57
2023/12/29 00:51:49;;;;;;;12.98;11.73;;;;;;;20.43;49.83;101917.56;5032019;28;20045;-57
2023/12/29 00:54:16;;;;;;;13.52;12.18;;;;;;;20.42;49.65;101913.16;5031727;28;20495;-57
2023/12/29 00:56:51;;;;;;;13.27;11.45;;;;;;;20.41;49.46;101903.34;5031870;28;20060;-57
2023/12/29 00:59:22;;;;;;;14.18;12.77;;;;;;;20.40;49.42;101912.41;5034295;28;20060;-56
2023/12/29 01:01:50;;;;;;;13.10;11.57;;;;;;;20.39;49.83;101905.31;5032168;28;20072;-57
2023/12/29 01:04:17;;;;;;;12.38;11.15;;;;;;;20.38;50.25;101906.28;5032970;28;20468;-57
2023/12/29 01:06:45;;;;;;;12.25;10.65;;;;;;;20.38;50.19;101911.66;5031418;28;20423;-53
2023/12/29 01:09:12;;;;;;;13.10;11.60;;;;;;;20.36;50.22;101916.28;5033547;28;20059;-55
2023/12/29 01:11:40;;;;;;;15.73;11.65;;;;;;;20.35;50.45;101920.81;5037269;28;20503;-52
2023/12/29 01:14:07;;;;;;;11.60;10.50;;;;;;;20.35;50.60;101918.13;5036208;28;20065;-51
2023/12/29 01:16:35;;;;;;;12.27;11.05;;;;;;;20.35;50.96;101914.56;5035640;28;20054;-55
2023/12/29 01:19:02;;;;;;;12.90;11.60;;;;;;;20.34;51.19;101915.56;5038365;28;20037;-53
2023/12/29 01:21:33;;;;;;;12.23;10.95;;;;;;;20.34;51.24;101911.03;5035460;28;20053;-54
2023/12/29 01:24:03;;;;;;;12.70;11.50;;;;;;;20.33;51.09;101903.06;5035403;28;20052;-55
2023/12/29 01:26:31;;;;;;;12.70;11.20;;;;;;;20.32;51.53;101904.88;5037119;28;20408;-57
2023/12/29 01:28:58;;;;;;;12.10;10.90;;;;;;;20.32;51.54;101904.03;5037471;28;20054;-57
2023/12/29 01:31:30;;;;;;;11.48;10.27;;;;;;;20.31;51.41;101908.56;5037246;28;20056;-58
2023/12/29 01:33:58;;;;;;;11.60;10.50;;;;;;;20.31;51.60;101913.94;5033538;28;20045;-57
2023/12/29 01:36:26;;;;;;;11.05;9.93;;;;;;;20.30;51.79;101906.84;5039968;28;20048;-50
2023/12/29 01:38:53;;;;;;;13.25;11.05;;;;;;;20.29;51.53;101907.78;5045407;28;20045;-54
2023/12/29 01:41:22;;;;;;;11.40;10.15;;;;;;;20.29;51.39;101915.88;5036829;28;20038;-53
2023/12/29 01:43:56;;;;;;;11.23;10.00;;;;;;;20.29;51.42;101913.19;5034085;28;20427;-54
2023/12/29 01:46:33;;;;;;;11.15;10.05;;;;;;;20.28;51.50;101907.91;5042039;28;20059;-55
2023/12/29 01:49:01;;;;;;;12.05;10.82;;;;;;;20.28;51.67;101918.69;5036660;28;20056;-55
2023/12/29 01:51:30;;;;;;;12.13;10.80;;;;;;;20.27;51.60;101925.88;5034412;28;20080;-53
2023/12/29 01:53:59;;;;;;;11.40;10.40;;;;;;;20.27;51.57;101917.81;5034707;28;20053;-50
2023/12/29 01:56:26;;;;;;;12.38;9.68;;;;;;;20.25;51.47;101917.94;5043720;28;20056;-57
2023/12/29 01:58:55;;;;;;;10.68;9.68;;;;;;;20.27;51.36;101912.44;5039736;28;20041;-57
2023/12/29 02:01:35;;;;;;;11.02;9.95;;;;;;;20.25;51.37;101909.88;5033051;28;20058;-57
2023/12/29 02:04:03;;;;;;;11.05;9.70;;;;;;;20.24;51.21;101913.50;5041837;28;20056;-58
2023/12/29 02:06:32;;;;;;;10.93;9.73;;;;;;;20.26;51.04;101921.50;5035879;28;20411;-57
2023/12/29 02:08:59;;;;;;;10.55;9.45;;;;;;;20.24;51.20;101918.88;5036236;28;20345;-57
2023/12/29 02:11:27;;;;;;;10.75;9.65;;;;;;;20.23;51.11;101922.56;5033014;28;20042;-56
2023/12/29 02:13:54;;;;;;;11.55;10.45;;;;;;;20.23;50.96;101919.88;5039248;28;20467;-57
2023/12/29 02:16:51;;;;;;;10.73;9.73;;;;;;;20.23;50.80;101917.19;5036569;28;20045;-56
2023/12/29 02:19:18;;;;;;;10.73;9.63;;;;;;;20.22;50.98;101903.88;5031983;28;20050;-57
2023/12/29 02:21:46;;;;;;;9.50;8.60;;;;;;;20.21;50.59;101900.28;5039295;28;20045;-58
2023/12/29 02:24:13;;;;;;;10.50;9.32;;;;;;;20.21;50.58;101897.59;5034393;28;20053;-56
2023/12/29 02:26:46;;;;;;;10.35;9.35;;;;;;;20.21;50.77;101894.91;5034318;28;20412;-55
2023/12/29 02:29:16;;;;;;;10.88;9.77;;;;;;;20.20;50.53;101898.56;5032375;28;20061;-54
2023/12/29 02:31:49;;;;;;;10.35;9.35;;;;;;;20.21;50.46;101894.06;5037895;28;20075;-54
2023/12/29 02:34:19;;;;;;;10.02;8.68;;;;;;;20.21;50.33;101886.84;5035927;28;20049;-51
2023/12/29 02:36:48;;;;;;;10.77;9.68;;;;;;;20.21;50.32;101888.69;5034698;28;20467;-56
2023/12/29 02:39:16;;;;;;;9.60;8.60;;;;;;;20.22;50.04;101890.41;5037221;28;20484;-56
2023/12/29 02:41:44;;;;;;;11.48;10.27;;;;;;;20.21;49.89;101889.53;5036499;28;20049;-58
2023/12/29 02:44:11;;;;;;;11.10;9.68;;;;;;;20.20;50.23;101877.06;5034370;28;20411;-56
2023/12/29 02:46:39;;;;;;;9.77;8.88;;;;;;;20.20;50.16;101882.44;5034223;28;20064;-57
2023/12/29 02:49:11;;;;;;;11.25;9.40;;;;;;;20.21;50.21;101878.78;5036144;28;20057;-57
2023/12/29 02:51:40;;;;;;;9.80;8.80;;;;;;;20.20;50.10;101873.53;5034321;28;20080;-56
2023/12/29 02:54:07;;;;;;;9.95;8.95;;;;;;;20.19;49.85;101864.59;5034389;28;20053;-57
2023/12/29 02:56:35;;;;;;;10.15;9.15;;;;;;;20.20;49.78;101871.69;5032990;28;20057;-53
2023/12/29 02:59:03;;;;;;;10.35;9.35;;;;;;;20.19;49.79;101869.13;5036906;28;20053;-54
2023/12/29 03:01:30;;;;;;;9.90;8.90;;;;;;;20.20;49.91;101862.75;5026190;28;20052;-54
2023/12/29 03:03:57;;;;;;;10.43;9.32;;;;;;;20.20;49.79;101862.75;5035364;28;20403;-54
2023/12/29 03:06:25;;;;;;;10.23;9.00;;;;;;;20.19;49.78;101866.44;5032582;28;20057;-56
2023/12/29 03:08:52;;;;;;;9.63;8.63;;;;;;;20.20;49.68;101852.88;5035036;28;20041;-56
2023/12/29 03:11:21;;;;;;;9.07;8.13;;;;;;;20.18;49.73;101838.69;5024794;28;20056;-56
2023/12/29 03:13:48;;;;;;;9.13;8.27;;;;;;;20.17;49.45;101839.63;5035038;28;20061;-56
2023/12/29 03:16:15;;;;;;;10.18;9.07;;;;;;;20.19;49.48;101834.16;5032308;28;20060;-55
2023/12/29 03:18:44;;;;;;;10.48;9.07;;;;;;;20.19;49.55;101824.28;5038903;28;20060;-54
2023/12/29 03:21:13;;;;;;;10.25;8.80;;;;;;;20.20;49.58;101830.50;5034801;28;20051;-53
2023/12/29 03:23:40;;;;;;;10.50;8.65;;;;;;;20.18;49.67;101827.94;5040178;28;20050;-53
2023/12/29 03:26:09;;;;;;;9.43;8.45;;;;;;;20.19;49.32;101826.09;5030825;28;20058;-54
2023/12/29 03:28:36;;;;;;;9.50;8.60;;;;;;;20.18;49.47;101819.03;5040673;28;20045;-57
2023/12/29 03:31:04;;;;;;;9.82;8.77;;;;;;;20.18;49.36;101819.03;5034439;28;20045;-57
2023/12/29 03:33:31;;;;;;;9.23;8.32;;;;;;;20.17;49.39;101806.53;5033812;28;20089;-56
2023/12/29 03:35:59;;;;;;;10.60;8.98;;;;;;;20.18;49.59;101811.81;5029940;28;20056;-56
2023/12/29 03:38:26;;;;;;;9.85;8.90;;;;;;;20.18;49.23;101806.44;5039604;28;20072;-50
2023/12/29 03:40:53;;;;;;;9.15;8.25;;;;;;;20.17;49.47;101802.00;5033170;28;20049;-54
2023/12/29 03:43:21;;;;;;;8.98;8.07;;;;;;;20.17;49.61;101799.31;5034369;28;20056;-52
2023/12/29 03:45:48;;;;;;;9.75;8.57;;;;;;;20.17;49.19;101804.69;5031403;28;20404;-49
2023/12/29 03:48:15;;;;;;;9.15;8.25;;;;;;;20.17;49.29;101804.69;5040531;28;20044;-58
2023/12/29 03:50:43;;;;;;;11.32;7.78;;;;;;;20.17;49.41;101804.69;5034117;28;20061;-59
2023/12/29 03:53:10;;;;;;;8.65;7.78;;;;;;;20.17;49.60;101803.84;5034296;28;20045;-56
2023/12/29 03:55:38;;;;;;;9.07;8.20;;;;;;;20.17;49.48;101802.00;5031099;28;20053;-57
2023/12/29 03:58:05;;;;;;;8.63;7.82;;;;;;;20.16;49.61;101792.22;5037843;28;20037;-57
2023/12/29 04:00:33;;;;;;;9.25;7.95;;;;;;;20.15;49.50;101798.59;5032471;28;20049;-56
2023/12/29 04:03:01;;;;;;;8.93;7.47;;;;;;;20.18;49.50;101800.19;5034248;28;20072;-56
2023/12/29 04:05:28;;;;;;;8.70;7.78;;;;;;;20.16;49.70;101804.81;5029779;28;20046;-57
2023/12/29 04:07:55;;;;;;;8.50;7.60;;;;;;;20.16;49.51;101796.75;5042197;28;20053;-52
2023/12/29 04:10:23;;;;;;;8.50;7.78;;;;;;;20.16;49.53;101792.22;5033941;28;20050;-53
2023/12/29 04:12:50;;;;;;;7.63;6.82;;;;;;;20.15;49.46;101795.91;5032439;28;20117;-54
2023/12/29 04:15:18;;;;;;;8.77;7.90;;;;;;;20.15;49.55;101793.22;5030470;28;20045;-54
2023/12/29 04:17:46;;;;;;;8.35;7.55;;;;;;;20.16;49.74;101788.69;5040903;28;20553;-58
2023/12/29 04:20:14;;;;;;;8.32;7.53;;;;;;;20.15;49.72;101786.97;5032572;28;20046;-58
2023/12/29 04:22:41;;;;;;;9.02;7.95;;;;;;;20.14;49.40;101778.06;5033259;28;20101;-57
2023/12/29 04:25:09;;;;;;;8.57;7.68;;;;;;;20.15;49.22;101787.84;5021682;28;20068;-56
2023/12/29 04:27:36;;;;;;;8.43;7.55;;;;;;;20.14;49.21;101787.97;5043137;28;20060;-58
2023/12/29 04:30:04;;;;;;;8.98;7.38;;;;;;;20.15;49.40;101778.91;5032537;28;20390;-55
2023/12/29 04:32:32;;;;;;;7.97;7.18;;;;;;;20.14;49.27;101772.69;5038820;28;20395;-56
2023/12/29 04:34:59;;;;;;;8.00;7.20;;;;;;;20.14;49.30;101764.63;5034420;28;20046;-58
2023/12/29 04:37:27;;;;;;;8.18;7.38;;;;;;;20.14;49.35;101761.94;5026588;28;20515;-51
2023/12/29 04:39:54;;;;;;;7.90;7.10;;;;;;;20.15;49.38;101763.63;5045829;28;20046;-53
2023/12/29 04:42:21;;;;;;;8.85;7.43;;;;;;;20.14;49.37;101764.63;5038532;28;20049;-54
2023/12/29 04:44:49;;;;;;;8.73;7.88;;;;;;;20.15;49.34;101762.78;5033842;28;20049;-51
2023/12/29 04:47:16;;;;;;;7.25;6.55;;;;;;;20.15;49.37;101757.41;5043088;28;20049;-56
2023/12/29 04:49:44;;;;;;;6.88;6.15;;;;;;;20.15;49.29;101763.63;5033471;28;20046;-55
2023/12/29 04:52:11;;;;;;;7.93;7.05;;;;;;;20.14;49.31;101759.22;5032099;28;20076;-56
2023/12/29 04:54:39;;;;;;;7.40;6.68;;;;;;;20.15;49.30;101760.94;5029225;28;20148;-56
2023/12/29 04:57:06;;;;;;;8.50;7.70;;;;;;;20.14;49.35;101764.63;5039780;28;20528;-56
2023/12/29 04:59:34;;;;;;;7.80;6.82;;;;;;;20.15;49.31;101762.78;5034173;28;20479;-57
2023/12/29 05:02:01;;;;;;;7.82;7.13;;;;;;;20.15;49.42;101763.63;5033399;28;20045;-58
2023/12/29 05:04:29;;;;;;;6.70;6.05;;;;;;;20.15;49.21;101763.63;5030375;28;20120;-56
2023/12/29 05:06:56;;;;;;;7.50;6.75;;;;;;;20.15;49.29;101762.78;5039641;28;20045;-54
2023/12/29 05:09:24;;;;;;;8.20;7.40;;;;;;;20.15;49.09;101760.94;5033074;28;20053;-53
2023/12/29 05:11:51;;;;;;;7.43;6.57;;;;;;;20.15;48.98;101762.78;5033205;28;20127;-53
2023/12/29 05:14:19;;;;;;;7.57;6.82;;;;;;;20.15;49.18;101766.31;5030115;28;20050;-55
2023/12/29 05:16:46;;;;;;;7.70;6.88;;;;;;;20.14;49.01;101772.69;5039908;28;20045;-57
2023/12/29 05:19:13;;;;;;;8.60;7.28;;;;;;;20.15;49.09;101765.47;5033193;28;20045;-57
2023/12/29 05:21:41;;;;;;;7.53;6.47;;;;;;;20.15;49.12;101763.63;5033133;28;20045;-58
2023/12/29 05:24:09;;;;;;;7.93;7.18;;;;;;;20.15;49.16;101760.09;5028823;28;20054;-57
2023/12/29 05:26:36;;;;;;;7.00;6.32;;;;;;;20.14;49.00;101751.16;5039945;28;20053;-57
2023/12/29 05:29:03;;;;;;;7.57;6.72;;;;;;;20.14;49.09;101755.69;5033113;28;20107;-57
2023/12/29 05:31:31;;;;;;;7.55;6.68;;;;;;;20.13;49.05;101753.94;5033569;28;20045;-58
2023/12/29 05:33:58;;;;;;;7.07;6.40;;;;;;;20.14;49.06;101755.69;5030110;28;20041;-57
2023/12/29 05:36:26;;;;;;;7.15;6.45;;;;;;;20.13;49.04;101754.81;5039664;28;20045;-53
2023/12/29 05:38:53;;;;;;;7.60;6.80;;;;;;;20.12;48.88;101758.47;5031591;28;20045;-52
2023/12/29 05:41:20;;;;;;;8.30;7.03;;;;;;;20.12;48.98;101742.34;5028854;28;20062;-54
2023/12/29 05:43:48;;;;;;;7.80;6.57;;;;;;;20.12;48.94;101745.03;5029916;28;20058;-56
2023/12/29 05:46:15;;;;;;;7.90;7.10;;;;;;;20.12;48.98;101753.09;5039277;28;20041;-54
2023/12/29 05:48:43;;;;;;;7.15;6.45;;;;;;;20.11;48.96;101754.09;5033395;28;20049;-52
2023/12/29 05:51:13;;;;;;;7.75;6.82;;;;;;;20.11;48.76;101770.22;5033124;28;20045;-53
2023/12/29 05:53:40;;;;;;;8.30;7.15;;;;;;;20.10;48.84;101768.50;5029740;28;20403;-51
2023/12/29 05:56:09;;;;;;;7.60;6.35;;;;;;;20.11;48.82;101770.22;5040383;28;20049;-58
2023/12/29 05:58:36;;;;;;;7.30;6.55;;;;;;;20.09;48.87;101764.06;5036237;28;20414;-54
2023/12/29 06:01:04;;;;;;;7.07;6.38;;;;;;;20.10;48.72;101770.34;5036746;28;20049;-55
2023/12/29 06:03:32;;;;;;;6.93;6.18;;;;;;;20.10;48.65;101773.88;5033020;28;20057;-55
2023/12/29 06:05:59;;;;;;;8.07;6.78;;;;;;;20.10;48.76;101776.56;5039086;28;20052;-53
2023/12/29 06:08:26;;;;;;;7.25;6.53;;;;;;;20.09;48.66;101780.19;5036213;28;20487;-52
2023/12/29 06:10:54;;;;;;;9.05;6.18;;;;;;;20.09;48.52;101779.34;5036414;28;20045;-52
2023/12/29 06:13:22;;;;;;;7.53;6.78;;;;;;;20.09;48.46;101780.19;5032541;28;20504;-53
2023/12/29 06:15:49;;;;;;;7.32;6.60;;;;;;;20.09;48.63;101773.97;5038536;28;20052;-58
2023/12/29 06:18:16;;;;;;;7.47;6.78;;;;;;;20.09;48.59;101780.19;5036069;28;20050;-57
2023/12/29 06:20:44;;;;;;;7.32;6.43;;;;;;;20.09;48.45;101773.97;5036299;28;20056;-58
2023/12/29 06:23:11;;;;;;;8.52;6.18;;;;;;;20.08;48.62;101775.81;5032985;28;20429;-57
2023/12/29 06:25:41;;;;;;;7.07;6.38;;;;;;;20.08;48.56;101773.13;5039075;28;20403;-58
2023/12/29 06:28:08;;;;;;;6.93;6.22;;;;;;;20.08;48.64;101772.25;5035913;28;20526;-57
2023/12/29 06:30:36;;;;;;;8.68;6.50;;;;;;;20.07;48.51;101782.16;5035935;28;20395;-57
2023/12/29 06:33:03;;;;;;;8.02;6.72;;;;;;;20.08;48.49;101783.03;5039523;28;20056;-56
2023/12/29 06:35:31;;;;;;;7.05;6.32;;;;;;;20.08;48.44;101788.41;5038286;28;20407;-56
2023/12/29 06:37:58;;;;;;;6.65;5.93;;;;;;;20.07;48.56;101787.53;5035710;28;20045;-57
2023/12/29 06:40:26;;;;;;;6.65;5.85;;;;;;;20.07;48.59;101770.56;5035755;28;20041;-57
2023/12/29 06:42:53;;;;;;;6.70;6.05;;;;;;;20.05;48.38;101765.28;5037949;28;20046;-56
2023/12/29 06:45:21;;;;;;;8.15;6.32;;;;;;;20.06;48.30;101780.47;5038254;28;20052;-56
2023/12/29 06:47:48;;;;;;;7.43;6.63;;;;;;;20.06;48.38;101775.06;5035923;28;20053;-56
2023/12/29 06:50:15;;;;;;;7.03;6.32;;;;;;;20.06;48.44;101780.47;5035587;28;20045;-56
2023/12/29 06:52:43;;;;;;;6.93;6.22;;;;;;;20.06;48.46;101787.66;5033043;28;20050;-56
2023/12/29 06:55:10;;;;;;;6.38;5.47;;;;;;;20.05;48.42;101784.09;5033458;28;20113;-56
2023/12/29 06:57:38;;;;;;;5.93;5.32;;;;;;;20.05;48.42;101784.09;5036170;28;20053;-52
2023/12/29 07:00:06;;;;;;;6.78;6.07;;;;;;;20.05;48.34;101777.88;5035449;28;20060;-49
2023/12/29 07:02:38;;;;;;;6.10;5.50;;;;;;;20.05;48.44;101789.47;5033465;28;20054;-53
2023/12/29 07:05:06;;;;;;;7.88;6.22;;;;;;;20.05;48.27;101800.22;5037479;28;20048;-53
2023/12/29 07:07:35;;;;;;;7.38;5.55;;;;;;;20.05;48.39;101794.00;5034496;28;20045;-55
2023/12/29 07:10:06;;;;;;;6.15;5.50;;;;;;;20.05;48.46;101788.63;5033577;28;20048;-53
2023/12/29 07:12:33;;;;;;;6.70;5.68;;;;;;;20.04;48.25;101782.38;5035418;28;20045;-53
2023/12/29 07:15:01;;;;;;;6.28;5.68;;;;;;;20.03;48.26;101794.13;5036383;28;20060;-53
2023/12/29 07:17:28;;;;;;;6.88;6.18;;;;;;;20.04;48.21;101798.50;5035966;28;20065;-52
2023/12/29 07:19:56;;;;;;;6.00;5.40;;;;;;;20.02;47.86;101787.03;5034308;28;20380;-48
2023/12/29 07:22:23;;;;;;;6.20;5.60;;;;;;;20.04;47.88;101798.50;5043936;28;20046;-54
2023/12/29 07:24:50;;;;;;;6.25;5.65;;;;;;;20.02;48.17;101800.47;5035062;28;20052;-58
2023/12/29 07:27:18;;;;;;;7.13;5.45;;;;;;;20.03;47.93;101801.31;5041683;28;20052;-57
2023/12/29 07:29:45;;;;;;;6.50;5.43;;;;;;;20.02;48.04;101805.00;5034338;28;20049;-59
2023/12/29 07:32:12;;;;;;;8.18;6.35;;;;;;;20.02;47.83;101821.13;5034381;28;20408;-59
2023/12/29 07:34:40;;;;;;;8.63;6.63;;;;;;;20.01;47.59;101822.91;5036017;28;20052;-57
2023/12/29 07:37:08;;;;;;;7.25;5.82;;;;;;;20.00;47.59;101818.53;5034776;28;20049;-56
2023/12/29 07:39:38;;;;;;;6.28;5.68;;;;;;;20.00;47.64;101814.00;5033526;28;20051;-56
2023/12/29 07:42:06;;;;;;;6.95;5.60;;;;;;;20.00;47.68;101834.66;5035776;28;20054;-55
2023/12/29 07:44:33;;;;;;;7.07;5.90;;;;;;;19.99;47.68;101833.78;5035569;28;20064;-56
2023/12/29 07:47:00;;;;;;;7.78;5.88;;;;;;;20.00;47.79;101834.66;5034414;28;20057;-57
2023/12/29 07:49:28;;;;;;;6.07;5.47;;;;;;;20.00;47.62;101830.13;5033050;28;20046;-57
2023/12/29 07:51:59;;;;;;;8.13;5.57;;;;;;;19.99;47.65;101836.47;5033246;28;20050;-57
2023/12/29 07:54:26;;;;;;;5.60;4.72;;;;;;;19.99;47.66;101833.78;5033883;28;20052;-57
2023/12/29 07:56:54;;;;;;;5.80;5.20;;;;;;;19.99;47.55;101839.16;5034388;28;20076;-51
2023/12/29 07:59:21;;;;;;;5.78;5.18;;;;;;;19.98;47.60;101837.47;5032554;28;20041;-52
2023/12/29 08:01:51;;;;;;;7.15;5.10;;;;;;;19.99;47.78;101841.00;5036544;28;20041;-54
2023/12/29 08:04:18;;;;;;;5.70;5.10;;;;;;;19.98;47.62;101841.97;5034774;28;20041;-52
2023/12/29 08:06:46;;;;;;;6.40;4.95;;;;;;;19.98;47.80;101836.59;5034458;28;20045;-55
2023/12/29 08:09:13;;;;;;;7.28;5.00;;;;;;;19.98;47.55;101841.97;5029325;28;20053;-56
2023/12/29 08:11:42;;;;;;;6.63;5.97;;;;;;;19.97;47.56;101843.81;5037317;28;20050;-56
2023/12/29 08:14:11;;;;;;;7.15;5.03;;;;;;;19.98;47.33;101845.53;5042358;28;20065;-57
2023/12/29 08:16:40;;;;;;;7.20;5.45;;;;;;;19.98;47.58;101841.97;5034397;28;20416;-54
2023/12/29 08:19:07;;;;;;;6.55;5.75;;;;;;;19.97;47.57;101849.19;5031348;28;20041;-50
2023/12/29 08:21:36;;;;;;;5.88;5.22;;;;;;;19.99;47.25;101854.44;5045315;28;20060;-53
2023/12/29 08:24:03;;;;;;;5.60;4.95;;;;;;;19.98;47.28;101848.22;5034496;28;20103;-53
2023/12/29 08:26:31;;;;;;;5.18;4.45;;;;;;;19.99;47.15;101858.00;5040737;28;20045;-53
2023/12/29 08:28:58;;;;;;;6.32;5.50;;;;;;;20.00;47.04;101848.09;5030898;28;20053;-52
2023/12/29 08:31:28;;;;;;;6.70;4.75;;;;;;;20.01;46.63;101849.81;5036712;28;20503;-54
2023/12/29 08:33:56;;;;;;;7.03;5.75;;;;;;;20.01;46.49;101847.09;5033728;28;20143;-50
2023/12/29 08:36:23;;;;;;;5.13;4.63;;;;;;;20.01;46.70;101852.47;5033668;28;20052;-57
2023/12/29 08:38:52;;;;;;;6.28;4.90;;;;;;;20.02;46.78;101842.63;5030691;28;20056;-56
2023/12/29 08:41:20;;;;;;;6.78;4.75;;;;;;;20.01;46.69;101852.47;5040153;28;20044;-56
2023/12/29 08:43:47;;;;;;;5.90;5.05;;;;;;;20.02;46.88;101851.53;5033696;28;20530;-58
2023/12/29 08:46:15;;;;;;;6.65;5.30;;;;;;;20.02;46.66;101854.22;5032923;28;20053;-57
2023/12/29 08:48:42;;;;;;;7.05;5.20;;;;;;;20.02;46.56;101854.22;5030409;28;20054;-57
2023/12/29 08:51:10;;;;;;;5.63;4.82;;;;;;;20.03;46.61;101855.09;5038794;28;20041;-57
2023/12/29 08:53:37;;;;;;;5.03;4.45;;;;;;;20.05;46.68;101863.88;5034923;28;20112;-56
2023/12/29 08:56:05;;;;;;;5.32;4.57;;;;;;;20.04;46.57;101868.41;5040981;28;20405;-56
2023/12/29 08:58:32;;;;;;;5.00;4.45;;;;;;;20.05;46.65;101869.25;5032999;28;20042;-54
2023/12/29 09:00:59;;;;;;;6.07;4.78;;;;;;;20.05;46.60;101875.47;5039732;28;20056;-54
2023/12/29 09:03:27;;;;;;;6.40;4.70;;;;;;;20.05;46.48;101874.63;5033047;28;20045;-51
2023/12/29 09:05:56;;;;;;;4.95;4.45;;;;;;;20.05;46.63;101875.47;5032914;28;20396;-51
2023/12/29 09:08:24;;;;;;;5.05;4.10;;;;;;;20.05;46.54;101875.47;5029946;28;20050;-52
2023/12/29 09:10:51;;;;;;;5.07;4.20;;;;;;;20.06;46.44;101876.38;5035776;28;20045;-51
2023/12/29 09:13:22;;;;;;;5.32;4.53;;;;;;;20.05;46.43;101874.63;5033788;28;20476;-52
2023/12/29 09:15:49;;;;;;;5.40;4.57;;;;;;;20.06;46.52;101876.38;5033564;28;20054;-50
2023/12/29 09:18:17;;;;;;;5.13;4.25;;;;;;;20.06;46.46;101871.84;5030624;28;20389;-53
2023/12/29 09:20:44;;;;;;;4.93;4.43;;;;;;;20.06;46.48;101871.00;5033892;28;20376;-53
2023/12/29 09:23:12;;;;;;;5.05;4.35;;;;;;;20.07;46.38;101878.94;5033118;28;20037;-54
2023/12/29 09:25:40;;;;;;;5.15;4.35;;;;;;;20.07;46.39;101878.09;5031993;28;20045;-51
2023/12/29 09:28:08;;;;;;;6.38;4.93;;;;;;;20.05;46.45;101870.09;5030899;28;20062;-55
2023/12/29 09:30:35;;;;;;;5.32;4.22;;;;;;;20.06;46.53;101877.22;5035502;28;20052;-58
2023/12/29 09:33:03;;;;;;;4.97;3.88;;;;;;;20.06;46.47;101881.75;5036766;28;20531;-58
2023/12/29 09:35:31;;;;;;;4.65;3.80;;;;;;;20.06;46.15;101887.97;5036979;28;20049;-58
2023/12/29 09:38:01;;;;;;;5.50;4.95;;;;;;;20.02;45.63;101882.94;5035875;28;20057;-58
2023/12/29 09:40:29;;;;;;;7.03;5.63;;;;;;;19.94;44.65;101886.19;5038808;28;20505;-59
2023/12/29 09:42:57;;;;;;;8.02;6.60;;;;;;;19.86;44.26;101875.13;5036931;28;20045;-59
2023/12/29 09:45:25;;;;;;;9.48;6.47;;;;;;;19.79;44.03;101866.63;5034858;28;20045;-60
2023/12/29 09:47:56;;;;;;;7.35;5.82;;;;;;;19.73;44.06;101870.63;5036184;28;20046;-59
2023/12/29 09:50:25;;;;;;;6.60;5.78;;;;;;;19.68;43.95;101870.06;5038493;28;20048;-57
2023/12/29 09:52:53;;;;;;;7.38;5.55;;;;;;;19.64;43.75;101862.34;5037045;28;20403;-58
2023/12/29 09:55:21;;;;;;;6.65;6.05;;;;;;;19.62;44.03;101866.97;5035182;28;20152;-58
2023/12/29 09:57:49;;;;;;;8.45;7.05;;;;;;;19.58;44.11;101866.28;5036798;28;20056;-58
2023/12/29 10:00:18;;;;;;;8.48;7.45;;;;;;;19.56;44.18;101862.00;5037855;28;20054;-59
2023/12/29 10:02:46;;;;;;;10.85;7.25;;;;;;;19.51;44.28;101863.16;5036993;28;20045;-59
2023/12/29 10:05:15;;;;;;;9.30;7.82;;;;;;;19.48;44.19;101868.75;5034975;28;20061;-58
2023/12/29 10:07:46;;;;;;;10.02;8.10;;;;;;;19.45;44.29;101860.94;5038382;28;20064;-58
2023/12/29 10:10:16;;;;;;;10.20;8.18;;;;;;;19.45;44.56;101860.94;5026911;28;20046;-58
2023/12/29 10:12:47;;;;;;;10.77;9.23;;;;;;;19.44;44.73;101858.34;5036073;28;20046;-58
2023/12/29 10:15:42;;;;;;;11.02;9.27;;;;;;;19.41;44.57;101861.25;5032199;28;20412;-58
2023/12/29 10:18:36;;;;;;;10.70;9.70;;;;;;;19.37;44.73;101857.06;5027676;28;20049;-58
2023/12/29 10:21:16;;;;;;;11.20;10.00;;;;;;;19.33;44.90;101855.56;5033006;28;20053;-58
2023/12/29 10:24:17;;;;;;;10.93;9.48;;;;;;;19.30;44.99;101861.16;5043513;28;20056;-58
2023/12/29 10:26:45;;;;;;;10.07;9.07;;;;;;;19.26;45.13;101855.97;5034672;28;20061;-57
2023/12/29 10:29:13;;;;;;;11.00;9.55;;;;;;;19.30;45.22;101845.03;5036386;28;20065;-57
2023/12/29 10:31:44;;;;;;;7.75;6.95;;;;;;;19.37;45.38;101840.97;5036667;28;20403;-57
2023/12/29 10:34:18;;;;;;;7.75;6.30;;;;;;;19.45;45.66;101835.91;5035827;28;20049;-51
2023/12/29 10:36:50;;;;;;;8.60;6.30;;;;;;;19.52;45.88;101834.47;5033896;28;20514;-53
2023/12/29 10:39:17;;;;;;;6.47;5.47;;;;;;;19.56;46.09;101825.25;5040779;28;20043;-55
2023/12/29 10:41:45;;;;;;;6.95;5.10;;;;;;;19.61;46.24;101825.81;5035670;28;20483;-52
2023/12/29 10:44:12;;;;;;;6.45;4.50;;;;;;;19.64;46.27;101817.53;5034543;28;20407;-52
2023/12/29 10:46:40;;;;;;;6.85;5.45;;;;;;;19.68;46.43;101815.47;5032416;28;20054;-54
2023/12/29 10:49:13;;;;;;;6.30;4.63;;;;;;;19.73;46.55;101806.13;5043058;28;20080;-53
2023/12/29 10:51:41;;;;;;;8.43;6.70;;;;;;;19.75;46.08;101809.56;5035485;28;20046;-52
2023/12/29 10:54:18;;;;;;;10.20;9.15;;;;;;;19.65;45.69;101803.16;5035889;28;20054;-56
2023/12/29 10:56:45;;;;;;;11.18;9.15;;;;;;;19.58;45.58;101800.97;5034714;28;20054;-56
2023/12/29 10:59:13;;;;;;;9.65;8.75;;;;;;;19.57;45.82;101797.44;5035707;28;20054;-57
2023/12/29 11:01:41;;;;;;;8.75;7.72;;;;;;;19.59;45.87;101798.16;5041786;28;20064;-57
2023/12/29 11:04:09;;;;;;;8.82;7.32;;;;;;;19.62;46.15;101781.88;5034184;28;20395;-56
2023/12/29 11:06:43;;;;;;;8.20;6.88;;;;;;;19.65;46.25;101788.88;5034814;28;20046;-50
2023/12/29 11:09:11;;;;;;;9.10;8.15;;;;;;;19.67;45.93;101792.28;5035174;28;20068;-51
2023/12/29 11:11:39;;;;;;;6.93;6.20;;;;;;;19.70;46.01;101784.00;5035274;28;20041;-52
2023/12/29 11:14:11;;;;;;;10.27;7.38;;;;;;;19.72;46.18;101774.84;5032877;28;20056;-57
2023/12/29 11:16:39;;;;;;;6.93;6.20;;;;;;;19.75;46.24;101771.94;5035286;28;20053;-52
2023/12/29 11:19:09;;;;;;;7.25;6.15;;;;;;;19.79;46.35;101771.72;5043644;28;20054;-50
2023/12/29 11:21:38;;;;;;;7.47;5.75;;;;;;;19.81;46.54;101770.66;5014026;28;20046;-52
2023/12/29 11:24:05;;;;;;;6.22;5.55;;;;;;;19.83;46.68;101762.47;5031312;28;20046;-50
2023/12/29 11:26:33;;;;;;;7.28;6.10;;;;;;;19.85;46.57;101753.34;5037664;28;20403;-56
2023/12/29 11:29:01;;;;;;;7.60;5.75;;;;;;;19.86;46.58;101754.19;5034621;28;20064;-56